Aeroporto :
LOGIN :

Iscrizione | Disclaimer

   EN    FR    IT 

 










Sommario :    VFR   VFR Marginale   IFR   IFR Intensivo   IFR Molto Intensivo
Visibilità : 
Base nubi : 
>= 8 km
>= 3000ft
5 / 8 km
1000 / 3000 ft
1500m / 5 km
500 / 1000 ft
800 / 1500m
200 / 500 ft
< 800m
< 200 ft
Simboli :   Temporali  Nebbia  Neve Forte  Precipitazioni Forti  Vento > 20 kt
SIGMETs :   Varie  Temporali  Ghiacco  Turbolenza  Onda orograficha  Ceneri Vulcaniche






- Altitudine del aeroporto : 3 ft
- Codice IATA : DHR


EHKD - Den Helder De Kooy

ULTIMO METAR :
  • 032202Z AUTO 15016KT 100V190 9999 -RA FEW009 SCT010 BKN012 05/03 Q0983 GRN

METARs OBSOLETI :
  • 032155Z AUTO 15015KT 100V190 9999 -RA FEW009 SCT011 BKN015 05/03 Q0983 GRN
  • 032143Z AUTO 15016KT 110V180 9999 -RA FEW010 SCT014 OVC016 05/03 Q0983 GRN
  • 032125Z AUTO 15017KT 120V190 9999 -RA FEW008 BKN011 BKN016 05/04 Q0984 GRN
  • 032111Z AUTO 15016KT 110V180 9999 -RA FEW009 SCT010 BKN015 05/04 Q0984 GRN
  • 032102Z AUTO 15016KT 110V180 9999 -RA FEW009 SCT012 OVC016 05/04 Q0984 GRN
  • 032055Z AUTO 15016KT 110V180 9999 -RA FEW008 BKN015 OVC018 05/04 Q0984 WHT
  • 032039Z AUTO 15015KT 120V180 9999 -RA FEW008 SCT011 BKN014 05/04 Q0984 GRN
  • 032030Z AUTO 15016KT 110V180 9999 -RA FEW008 SCT012 OVC016 05/04 Q0984 GRN
  • 032025Z AUTO 15017KT 120V180 9999 -RA FEW008 SCT010 OVC016 05/04 Q0984 GRN
  • 031955Z AUTO 15015G25KT 110V180 9999 -RA FEW007 BKN011 OVC013 05/04 Q0985 RERA REDZ GRN
  • 031925Z AUTO 15015KT 110V180 9999 -RADZ SCT007 BKN008 BKN009 05/04 Q0985 GRN
  • 031912Z AUTO 15015KT 100V180 9999 -DZRA SCT007 BKN008 OVC009 05/04 Q0986 GRN

TAF TAF EHKD
Valido dal 03 a 18 ore il 04 a 06 ore UTC


031713Z 0318/0406 16012KT 9999 SCT018 BKN040
BECMG 0318/0320 15016G26KT
PROB40
TEMPO 0318/0402 SCT007 BKN012



MetMap, La meteo Aeronautica in un colpo d'occhio ! - Copyright ORBIFLY Dicembre 2007 - Disclaimer

ORBIFLY MET'MAP TEAM :

Programmazione e sviluppo : Alexandra Zaïnal
Concezione : Baudouin d'Aumeries
Aiuto per la programmazione : Marc-Olivier Méhu
Supporto tecnico e logistico : Manuel Goepfert
Aiuto per la traduzione : Arnaldo La Scala

Contatto : metmap@orbifly.com




FONTI E CREDITI :

   NOAA